sensor_id;sensor_type;location;lat;lon;timestamp;pressure;altitude;pressure_sealevel;temperature;humidity
22649;BME280;11491;41.942;24.220;2024-01-15T00:00:53;89260.91;;;-4.99;77.28
22649;BME280;11491;41.942;24.220;2024-01-15T00:03:20;89254.66;;;-5.03;76.81
22649;BME280;11491;41.942;24.220;2024-01-15T00:05:47;89259.09;;;-4.99;75.97
22649;BME280;11491;41.942;24.220;2024-01-15T00:08:14;89261.16;;;-4.95;75.27
22649;BME280;11491;41.942;24.220;2024-01-15T00:10:40;89262.22;;;-4.96;75.53
22649;BME280;11491;41.942;24.220;2024-01-15T00:13:07;89263.78;;;-5.06;75.25
22649;BME280;11491;41.942;24.220;2024-01-15T00:15:35;89264.38;;;-5.24;75.87
22649;BME280;11491;41.942;24.220;2024-01-15T00:18:02;89264.41;;;-5.45;77.34
22649;BME280;11491;41.942;24.220;2024-01-15T00:20:29;89272.75;;;-5.53;78.86
22649;BME280;11491;41.942;24.220;2024-01-15T00:22:56;89267.81;;;-5.54;78.87
22649;BME280;11491;41.942;24.220;2024-01-15T00:25:22;89270.16;;;-5.53;78.25
22649;BME280;11491;41.942;24.220;2024-01-15T00:27:49;89272.25;;;-5.60;78.51
22649;BME280;11491;41.942;24.220;2024-01-15T00:30:15;89276.44;;;-5.54;78.17
22649;BME280;11491;41.942;24.220;2024-01-15T00:32:43;89270.38;;;-5.44;78.03
22649;BME280;11491;41.942;24.220;2024-01-15T00:35:10;89269.09;;;-5.42;78.19
22649;BME280;11491;41.942;24.220;2024-01-15T00:37:37;89259.72;;;-5.43;77.80
22649;BME280;11491;41.942;24.220;2024-01-15T00:40:05;89263.34;;;-5.28;76.06
22649;BME280;11491;41.942;24.220;2024-01-15T00:42:33;89266.47;;;-5.47;76.89
22649;BME280;11491;41.942;24.220;2024-01-15T00:44:59;89259.19;;;-5.45;76.51
22649;BME280;11491;41.942;24.220;2024-01-15T00:47:26;89263.88;;;-5.52;77.06
22649;BME280;11491;41.942;24.220;2024-01-15T00:49:54;89268.06;;;-5.46;76.70
22649;BME280;11491;41.942;24.220;2024-01-15T00:52:21;89266.47;;;-5.47;76.16
22649;BME280;11491;41.942;24.220;2024-01-15T00:54:48;89270.91;;;-5.37;75.50
22649;BME280;11491;41.942;24.220;2024-01-15T00:57:14;89262.84;;;-5.46;76.40
22649;BME280;11491;41.942;24.220;2024-01-15T00:59:41;89262.59;;;-5.39;76.57
22649;BME280;11491;41.942;24.220;2024-01-15T01:02:08;89260.22;;;-5.41;75.21
22649;BME280;11491;41.942;24.220;2024-01-15T01:04:34;89251.38;;;-5.39;74.80
22649;BME280;11491;41.942;24.220;2024-01-15T01:07:03;89252.44;;;-5.56;75.44
22649;BME280;11491;41.942;24.220;2024-01-15T01:09:29;89250.38;;;-5.54;75.78
22649;BME280;11491;41.942;24.220;2024-01-15T01:11:56;89245.66;;;-5.52;75.61
22649;BME280;11491;41.942;24.220;2024-01-15T01:14:23;89233.69;;;-5.58;75.83
22649;BME280;11491;41.942;24.220;2024-01-15T01:16:50;89241.50;;;-5.53;74.99
22649;BME280;11491;41.942;24.220;2024-01-15T01:19:16;89243.09;;;-5.72;75.54
22649;BME280;11491;41.942;24.220;2024-01-15T01:21:43;89233.19;;;-5.65;76.12
22649;BME280;11491;41.942;24.220;2024-01-15T01:24:11;89233.16;;;-5.60;75.84
22649;BME280;11491;41.942;24.220;2024-01-15T01:26:38;89231.34;;;-5.70;75.87
22649;BME280;11491;41.942;24.220;2024-01-15T01:29:05;89222.78;;;-5.75;76.00
22649;BME280;11491;41.942;24.220;2024-01-15T01:31:31;89218.63;;;-5.71;76.01
22649;BME280;11491;41.942;24.220;2024-01-15T01:33:58;89218.88;;;-5.73;75.88
22649;BME280;11491;41.942;24.220;2024-01-15T01:36:25;89219.13;;;-5.79;76.39
22649;BME280;11491;41.942;24.220;2024-01-15T01:38:52;89216.53;;;-5.74;76.17
22649;BME280;11491;41.942;24.220;2024-01-15T01:41:20;89212.88;;;-5.73;76.50
22649;BME280;11491;41.942;24.220;2024-01-15T01:43:46;89216.53;;;-5.79;76.25
22649;BME280;11491;41.942;24.220;2024-01-15T01:46:13;89215.00;;;-5.91;76.56
22649;BME280;11491;41.942;24.220;2024-01-15T01:48:40;89217.06;;;-5.82;75.95
22649;BME280;11491;41.942;24.220;2024-01-15T01:51:07;89202.72;;;-5.75;76.70
22649;BME280;11491;41.942;24.220;2024-01-15T01:53:34;89218.09;;;-5.68;75.11
22649;BME280;11491;41.942;24.220;2024-01-15T01:56:03;89210.28;;;-5.73;74.81
22649;BME280;11491;41.942;24.220;2024-01-15T01:58:33;89196.22;;;-5.88;75.60
22649;BME280;11491;41.942;24.220;2024-01-15T02:01:00;89209.25;;;-5.88;76.42
22649;BME280;11491;41.942;24.220;2024-01-15T02:03:27;89207.94;;;-5.85;75.66
22649;BME280;11491;41.942;24.220;2024-01-15T02:05:54;89205.59;;;-5.87;75.81
22649;BME280;11491;41.942;24.220;2024-01-15T02:08:21;89193.16;;;-6.05;76.14
22649;BME280;11491;41.942;24.220;2024-01-15T02:10:48;89196.28;;;-6.49;78.42
22649;BME280;11491;41.942;24.220;2024-01-15T02:13:15;89195.25;;;-6.43;78.56
22649;BME280;11491;41.942;24.220;2024-01-15T02:15:43;89206.44;;;-6.27;77.91
22649;BME280;11491;41.942;24.220;2024-01-15T02:18:10;89198.63;;;-6.22;77.80
22649;BME280;11491;41.942;24.220;2024-01-15T02:20:37;89193.19;;;-6.36;77.06
22649;BME280;11491;41.942;24.220;2024-01-15T02:23:08;89186.16;;;-6.51;79.06
22649;BME280;11491;41.942;24.220;2024-01-15T02:25:35;89184.31;;;-6.35;79.03
22649;BME280;11491;41.942;24.220;2024-01-15T02:28:03;89188.47;;;-6.29;78.67
22649;BME280;11491;41.942;24.220;2024-01-15T02:30:31;89186.94;;;-6.40;78.34
22649;BME280;11491;41.942;24.220;2024-01-15T02:32:58;89190.06;;;-6.28;78.26
22649;BME280;11491;41.942;24.220;2024-01-15T02:35:25;89194.72;;;-6.55;79.06
22649;BME280;11491;41.942;24.220;2024-01-15T02:37:51;89183.78;;;-6.47;79.25
22649;BME280;11491;41.942;24.220;2024-01-15T02:40:19;89189.00;;;-6.42;78.95
22649;BME280;11491;41.942;24.220;2024-01-15T02:42:46;89182.75;;;-6.46;79.78
22649;BME280;11491;41.942;24.220;2024-01-15T02:45:13;89179.13;;;-6.45;79.72
22649;BME280;11491;41.942;24.220;2024-01-15T02:47:40;89182.50;;;-6.29;79.49
22649;BME280;11491;41.942;24.220;2024-01-15T02:50:07;89180.16;;;-6.20;78.67
22649;BME280;11491;41.942;24.220;2024-01-15T02:52:33;89180.69;;;-6.23;79.10
22649;BME280;11491;41.942;24.220;2024-01-15T02:55:00;89180.66;;;-6.03;78.31
22649;BME280;11491;41.942;24.220;2024-01-15T02:57:28;89178.84;;;-6.13;78.19
22649;BME280;11491;41.942;24.220;2024-01-15T02:59:55;89176.50;;;-6.19;78.23
22649;BME280;11491;41.942;24.220;2024-01-15T03:02:22;89175.19;;;-6.07;77.76
22649;BME280;11491;41.942;24.220;2024-01-15T03:04:48;89167.66;;;-6.29;77.97
22649;BME280;11491;41.942;24.220;2024-01-15T03:07:15;89181.72;;;-6.40;79.28
22649;BME280;11491;41.942;24.220;2024-01-15T03:09:42;89177.00;;;-6.63;80.14
22649;BME280;11491;41.942;24.220;2024-01-15T03:12:09;89183.78;;;-6.47;80.42
22649;BME280;11491;41.942;24.220;2024-01-15T03:14:37;89187.16;;;-6.31;79.44
22649;BME280;11491;41.942;24.220;2024-01-15T03:17:04;89183.28;;;-6.39;79.37
22649;BME280;11491;41.942;24.220;2024-01-15T03:19:34;89187.16;;;-6.26;79.16
22649;BME280;11491;41.942;24.220;2024-01-15T03:22:01;89198.38;;;-6.15;78.60
22649;BME280;11491;41.942;24.220;2024-01-15T03:24:29;89196.31;;;-6.23;78.68
22649;BME280;11491;41.942;24.220;2024-01-15T03:26:55;89204.88;;;-6.18;78.40
22649;BME280;11491;41.942;24.220;2024-01-15T03:29:22;89201.50;;;-6.13;78.02
22649;BME280;11491;41.942;24.220;2024-01-15T03:31:50;89190.81;;;-6.07;78.24
22649;BME280;11491;41.942;24.220;2024-01-15T03:34:17;89183.81;;;-6.06;77.34
22649;BME280;11491;41.942;24.220;2024-01-15T03:36:44;89190.03;;;-6.07;77.75
22649;BME280;11491;41.942;24.220;2024-01-15T03:39:11;89187.41;;;-5.97;76.78
22649;BME280;11491;41.942;24.220;2024-01-15T03:41:37;89176.47;;;-5.99;76.77
22649;BME280;11491;41.942;24.220;2024-01-15T03:44:04;89186.34;;;-5.91;76.06
22649;BME280;11491;41.942;24.220;2024-01-15T03:46:31;89191.81;;;-5.92;75.92
22649;BME280;11491;41.942;24.220;2024-01-15T03:48:59;89185.34;;;-6.00;75.71
22649;BME280;11491;41.942;24.220;2024-01-15T03:51:26;89188.72;;;-5.99;75.68
22649;BME280;11491;41.942;24.220;2024-01-15T03:53:52;89180.91;;;-5.99;75.67
22649;BME280;11491;41.942;24.220;2024-01-15T03:56:19;89190.03;;;-5.97;75.27
22649;BME280;11491;41.942;24.220;2024-01-15T03:58:46;89171.28;;;-6.09;75.53
22649;BME280;11491;41.942;24.220;2024-01-15T04:01:13;89175.50;;;-6.23;76.61
22649;BME280;11491;41.942;24.220;2024-01-15T04:03:39;89175.47;;;-6.13;77.35
22649;BME280;11491;41.942;24.220;2024-01-15T04:06:07;89179.09;;;-6.04;76.03
22649;BME280;11491;41.942;24.220;2024-01-15T04:08:34;89175.19;;;-6.17;76.20
22649;BME280;11491;41.942;24.220;2024-01-15T04:11:01;89179.09;;;-6.14;76.65
22649;BME280;11491;41.942;24.220;2024-01-15T04:13:28;89182.75;;;-6.15;75.99
22649;BME280;11491;41.942;24.220;2024-01-15T04:15:54;89170.78;;;-6.32;76.74
22649;BME280;11491;41.942;24.220;2024-01-15T04:18:21;89177.56;;;-6.25;76.63
22649;BME280;11491;41.942;24.220;2024-01-15T04:20:48;89176.50;;;-6.14;76.29
22649;BME280;11491;41.942;24.220;2024-01-15T04:23:16;89172.88;;;-6.18;75.90
22649;BME280;11491;41.942;24.220;2024-01-15T04:25:43;89174.97;;;-6.20;76.48
22649;BME280;11491;41.942;24.220;2024-01-15T04:28:11;89164.53;;;-6.15;75.26
22649;BME280;11491;41.942;24.220;2024-01-15T04:30:38;89168.16;;;-6.11;74.15
22649;BME280;11491;41.942;24.220;2024-01-15T04:33:04;89160.38;;;-6.26;75.02
22649;BME280;11491;41.942;24.220;2024-01-15T04:35:31;89164.03;;;-6.28;75.12
22649;BME280;11491;41.942;24.220;2024-01-15T04:37:58;89168.19;;;-6.32;75.50
22649;BME280;11491;41.942;24.220;2024-01-15T04:40:26;89157.78;;;-6.37;75.26
22649;BME280;11491;41.942;24.220;2024-01-15T04:42:53;89147.66;;;-6.38;75.74
22649;BME280;11491;41.942;24.220;2024-01-15T04:45:20;89155.69;;;-6.40;75.54
22649;BME280;11491;41.942;24.220;2024-01-15T04:47:48;89157.78;;;-6.37;75.99
22649;BME280;11491;41.942;24.220;2024-01-15T04:50:15;89158.84;;;-6.53;76.65
22649;BME280;11491;41.942;24.220;2024-01-15T04:52:42;89153.09;;;-6.55;76.40
22649;BME280;11491;41.942;24.220;2024-01-15T04:55:08;89138.53;;;-6.61;76.95
22649;BME280;11491;41.942;24.220;2024-01-15T04:57:36;89134.91;;;-6.50;76.65
22649;BME280;11491;41.942;24.220;2024-01-15T05:00:04;89131.53;;;-6.45;76.01
22649;BME280;11491;41.942;24.220;2024-01-15T05:02:31;89129.69;;;-6.45;75.90
22649;BME280;11491;41.942;24.220;2024-01-15T05:04:58;89133.59;;;-6.47;75.45
22649;BME280;11491;41.942;24.220;2024-01-15T05:07:24;89131.53;;;-6.45;75.15
22649;BME280;11491;41.942;24.220;2024-01-15T05:09:51;89119.28;;;-6.60;75.73
22649;BME280;11491;41.942;24.220;2024-01-15T05:12:18;89126.03;;;-6.59;75.99
22649;BME280;11491;41.942;24.220;2024-01-15T05:14:46;89131.78;;;-6.62;76.38
22649;BME280;11491;41.942;24.220;2024-01-15T05:17:13;89128.13;;;-6.51;75.81
22649;BME280;11491;41.942;24.220;2024-01-15T05:19:39;89126.56;;;-6.73;76.56
22649;BME280;11491;41.942;24.220;2024-01-15T05:22:06;89120.31;;;-6.66;77.10
22649;BME280;11491;41.942;24.220;2024-01-15T05:24:33;89127.59;;;-6.68;76.78
22649;BME280;11491;41.942;24.220;2024-01-15T05:26:59;89125.28;;;-6.65;77.48
22649;BME280;11491;41.942;24.220;2024-01-15T05:29:26;89113.03;;;-6.64;77.10
22649;BME280;11491;41.942;24.220;2024-01-15T05:31:55;89117.72;;;-6.61;77.74
22649;BME280;11491;41.942;24.220;2024-01-15T05:34:21;89125.03;;;-6.53;77.73
22649;BME280;11491;41.942;24.220;2024-01-15T05:36:48;89116.44;;;-6.38;77.13
22649;BME280;11491;41.942;24.220;2024-01-15T05:39:14;89107.31;;;-6.41;76.97
22649;BME280;11491;41.942;24.220;2024-01-15T05:41:40;89110.94;;;-6.32;76.95
22649;BME280;11491;41.942;24.220;2024-01-15T05:44:07;89109.38;;;-6.22;76.42
22649;BME280;11491;41.942;24.220;2024-01-15T05:46:35;89107.81;;;-6.34;76.79
22649;BME280;11491;41.942;24.220;2024-01-15T05:49:03;89107.81;;;-6.34;76.63
22649;BME280;11491;41.942;24.220;2024-01-15T05:51:30;89112.75;;;-6.22;76.39
22649;BME280;11491;41.942;24.220;2024-01-15T05:53:56;89114.03;;;-6.14;76.27
22649;BME280;11491;41.942;24.220;2024-01-15T05:56:23;89115.59;;;-6.08;76.63
22649;BME280;11491;41.942;24.220;2024-01-15T05:58:50;89125.50;;;-6.15;76.14
22649;BME280;11491;41.942;24.220;2024-01-15T06:01:17;89114.81;;;-6.09;76.79
22649;BME280;11491;41.942;24.220;2024-01-15T06:03:44;89122.88;;;-6.10;77.42
22649;BME280;11491;41.942;24.220;2024-01-15T06:06:12;89117.69;;;-6.10;77.29
22649;BME280;11491;41.942;24.220;2024-01-15T06:08:39;89120.25;;;-5.95;77.29
22649;BME280;11491;41.942;24.220;2024-01-15T06:11:06;89120.19;;;-5.85;76.94
22649;BME280;11491;41.942;24.220;2024-01-15T06:13:33;89107.44;;;-5.86;76.74
22649;BME280;11491;41.942;24.220;2024-01-15T06:19:19;89094.63;;;-5.67;76.39
22649;BME280;11491;41.942;24.220;2024-01-15T06:21:47;89096.66;;;-5.59;75.88
22649;BME280;11491;41.942;24.220;2024-01-15T06:24:14;89106.63;;;-5.71;75.92
22649;BME280;11491;41.942;24.220;2024-01-15T06:26:43;89104.03;;;-5.71;76.36
22649;BME280;11491;41.942;24.220;2024-01-15T06:29:10;89101.91;;;-5.69;76.64
22649;BME280;11491;41.942;24.220;2024-01-15T06:31:36;89107.13;;;-5.69;76.73
22649;BME280;11491;41.942;24.220;2024-01-15T06:34:03;89111.56;;;-5.75;78.16
22649;BME280;11491;41.942;24.220;2024-01-15T06:36:30;89100.91;;;-5.73;79.79
22649;BME280;11491;41.942;24.220;2024-01-15T06:38:58;89090.91;;;-5.51;80.59
22649;BME280;11491;41.942;24.220;2024-01-15T06:41:24;89090.78;;;-5.25;80.36
22649;BME280;11491;41.942;24.220;2024-01-15T06:43:51;89081.88;;;-5.14;79.54
22649;BME280;11491;41.942;24.220;2024-01-15T06:46:20;89078.13;;;-5.03;79.19
22649;BME280;11491;41.942;24.220;2024-01-15T06:48:47;89090.56;;;-4.84;79.18
22649;BME280;11491;41.942;24.220;2024-01-15T06:51:14;89086.34;;;-4.80;78.92
22649;BME280;11491;41.942;24.220;2024-01-15T06:53:41;89092.03;;;-4.73;78.61
22649;BME280;11491;41.942;24.220;2024-01-15T06:56:10;89089.84;;;-4.61;78.31
22649;BME280;11491;41.942;24.220;2024-01-15T06:58:36;89091.34;;;-4.49;78.52
22649;BME280;11491;41.942;24.220;2024-01-15T07:01:03;89089.38;;;-4.34;78.94
22649;BME280;11491;41.942;24.220;2024-01-15T07:03:31;89088.97;;;-4.17;79.13
22649;BME280;11491;41.942;24.220;2024-01-15T07:05:57;89088.88;;;-4.06;79.68
22649;BME280;11491;41.942;24.220;2024-01-15T07:08:24;89086.66;;;-3.94;79.73
22649;BME280;11491;41.942;24.220;2024-01-15T07:10:51;89080.56;;;-3.84;79.02
22649;BME280;11491;41.942;24.220;2024-01-15T07:13:19;89079.91;;;-3.71;79.05
22649;BME280;11491;41.942;24.220;2024-01-15T07:15:46;89081.56;;;-3.56;78.53
22649;BME280;11491;41.942;24.220;2024-01-15T07:18:13;89076.78;;;-3.49;78.47
22649;BME280;11491;41.942;24.220;2024-01-15T07:20:39;89078.75;;;-3.41;78.21
22649;BME280;11491;41.942;24.220;2024-01-15T07:23:06;89085.00;;;-3.37;77.75
22649;BME280;11491;41.942;24.220;2024-01-15T07:25:33;89077.81;;;-3.26;77.37
22649;BME280;11491;41.942;24.220;2024-01-15T07:28:00;89083.63;;;-3.10;77.32
22649;BME280;11491;41.942;24.220;2024-01-15T07:30:28;89087.59;;;-2.94;76.08
22649;BME280;11491;41.942;24.220;2024-01-15T07:32:55;89090.06;;;-2.84;76.06
22649;BME280;11491;41.942;24.220;2024-01-15T07:35:21;89097.91;;;-2.84;76.05
22649;BME280;11491;41.942;24.220;2024-01-15T07:37:48;89090.00;;;-2.78;77.50
22649;BME280;11491;41.942;24.220;2024-01-15T07:40:15;89106.84;;;-2.85;77.88
22649;BME280;11491;41.942;24.220;2024-01-15T07:42:42;89105.00;;;-2.65;81.95
22649;BME280;11491;41.942;24.220;2024-01-15T07:45:09;89118.41;;;-2.34;80.23
22649;BME280;11491;41.942;24.220;2024-01-15T07:47:37;89132.56;;;-2.16;78.96
22649;BME280;11491;41.942;24.220;2024-01-15T07:50:04;89139.19;;;-2.05;79.37
22649;BME280;11491;41.942;24.220;2024-01-15T07:52:31;89116.34;;;-1.85;78.85
22649;BME280;11491;41.942;24.220;2024-01-15T07:54:58;89113.84;;;-1.63;78.60
22649;BME280;11491;41.942;24.220;2024-01-15T07:57:26;89119.59;;;-1.47;77.79
22649;BME280;11491;41.942;24.220;2024-01-15T07:59:52;89102.59;;;-1.63;77.21
22649;BME280;11491;41.942;24.220;2024-01-15T08:02:19;89108.22;;;-1.42;78.08
22649;BME280;11491;41.942;24.220;2024-01-15T08:04:48;89106.69;;;-1.16;77.22
22649;BME280;11491;41.942;24.220;2024-01-15T08:07:15;89110.25;;;-0.98;76.86
22649;BME280;11491;41.942;24.220;2024-01-15T08:09:43;89096.16;;;-0.88;75.88
22649;BME280;11491;41.942;24.220;2024-01-15T08:12:09;89079.03;;;-0.72;75.99
22649;BME280;11491;41.942;24.220;2024-01-15T08:14:37;89091.22;;;-0.53;76.73
22649;BME280;11491;41.942;24.220;2024-01-15T08:17:04;89095.63;;;-0.26;76.36
22649;BME280;11491;41.942;24.220;2024-01-15T08:19:30;89072.38;;;-0.10;75.55
22649;BME280;11491;41.942;24.220;2024-01-15T08:21:59;89076.22;;;0.06;75.48
22649;BME280;11491;41.942;24.220;2024-01-15T08:24:25;89075.53;;;0.23;74.85
22649;BME280;11491;41.942;24.220;2024-01-15T08:26:52;89075.34;;;0.19;74.89
22649;BME280;11491;41.942;24.220;2024-01-15T08:29:19;89071.31;;;0.13;75.76
22649;BME280;11491;41.942;24.220;2024-01-15T08:31:46;89068.03;;;0.08;76.52
22649;BME280;11491;41.942;24.220;2024-01-15T08:34:13;89058.53;;;-0.02;77.77
22649;BME280;11491;41.942;24.220;2024-01-15T08:36:39;89048.59;;;-0.05;77.99
22649;BME280;11491;41.942;24.220;2024-01-15T08:39:08;89051.44;;;-0.24;78.62
22649;BME280;11491;41.942;24.220;2024-01-15T08:41:35;89057.50;;;-0.37;79.77
22649;BME280;11491;41.942;24.220;2024-01-15T08:44:02;89046.94;;;-0.46;79.42
22649;BME280;11491;41.942;24.220;2024-01-15T08:46:29;89052.81;;;-0.27;78.80
22649;BME280;11491;41.942;24.220;2024-01-15T08:48:55;89045.09;;;-0.01;78.61
22649;BME280;11491;41.942;24.220;2024-01-15T08:51:22;89043.03;;;0.19;77.29
22649;BME280;11491;41.942;24.220;2024-01-15T08:53:49;89027.75;;;0.30;76.85
22649;BME280;11491;41.942;24.220;2024-01-15T08:56:17;89018.88;;;0.48;75.51
22649;BME280;11491;41.942;24.220;2024-01-15T08:58:44;89016.66;;;0.81;75.81
22649;BME280;11491;41.942;24.220;2024-01-15T09:01:11;89015.97;;;1.33;75.88
22649;BME280;11491;41.942;24.220;2024-01-15T09:03:38;89022.78;;;1.69;73.64
22649;BME280;11491;41.942;24.220;2024-01-15T09:06:07;89011.28;;;2.00;73.01
22649;BME280;11491;41.942;24.220;2024-01-15T09:08:34;89016.47;;;2.34;71.99
22649;BME280;11491;41.942;24.220;2024-01-15T09:11:04;89016.34;;;2.69;70.88
22649;BME280;11491;41.942;24.220;2024-01-15T09:13:32;89019.19;;;2.94;69.33
22649;BME280;11491;41.942;24.220;2024-01-15T09:15:59;89024.41;;;3.11;68.67
22649;BME280;11491;41.942;24.220;2024-01-15T09:18:26;89030.94;;;3.35;68.09
22649;BME280;11491;41.942;24.220;2024-01-15T09:20:53;89016.50;;;3.74;68.70
22649;BME280;11491;41.942;24.220;2024-01-15T09:23:19;89013.66;;;4.00;63.98
22649;BME280;11491;41.942;24.220;2024-01-15T09:25:46;89005.19;;;4.40;63.87
22649;BME280;11491;41.942;24.220;2024-01-15T09:28:14;89001.94;;;5.05;59.50
22649;BME280;11491;41.942;24.220;2024-01-15T09:30:42;88983.41;;;5.70;59.38
22649;BME280;11491;41.942;24.220;2024-01-15T09:33:10;88978.50;;;5.96;57.74
22649;BME280;11491;41.942;24.220;2024-01-15T09:35:37;88970.13;;;5.82;57.58
22649;BME280;11491;41.942;24.220;2024-01-15T09:38:04;88971.41;;;5.48;57.85
22649;BME280;11491;41.942;24.220;2024-01-15T09:40:31;88943.09;;;4.87;59.59
22649;BME280;11491;41.942;24.220;2024-01-15T09:43:00;88960.66;;;4.79;61.38
22649;BME280;11491;41.942;24.220;2024-01-15T09:45:28;88958.88;;;4.71;61.22
22649;BME280;11491;41.942;24.220;2024-01-15T09:47:57;88958.22;;;4.62;61.68
22649;BME280;11491;41.942;24.220;2024-01-15T09:50:24;88958.41;;;4.44;63.96
22649;BME280;11491;41.942;24.220;2024-01-15T09:52:52;88947.06;;;4.44;63.98
22649;BME280;11491;41.942;24.220;2024-01-15T09:55:19;88940.78;;;4.48;60.53
22649;BME280;11491;41.942;24.220;2024-01-15T09:57:46;88935.50;;;4.48;60.68
22649;BME280;11491;41.942;24.220;2024-01-15T10:00:13;88928.88;;;4.30;60.42
22649;BME280;11491;41.942;24.220;2024-01-15T10:02:41;88928.22;;;4.45;60.11
22649;BME280;11491;41.942;24.220;2024-01-15T10:05:09;88922.03;;;4.41;60.16
22649;BME280;11491;41.942;24.220;2024-01-15T10:07:37;88927.13;;;4.59;58.69
22649;BME280;11491;41.942;24.220;2024-01-15T10:10:04;88922.03;;;4.66;58.74
22649;BME280;11491;41.942;24.220;2024-01-15T10:12:33;88923.16;;;4.52;58.88
22649;BME280;11491;41.942;24.220;2024-01-15T10:15:00;88906.81;;;4.38;59.90
22649;BME280;11491;41.942;24.220;2024-01-15T10:17:27;88896.44;;;4.94;58.11
22649;BME280;11491;41.942;24.220;2024-01-15T10:19:56;88902.13;;;5.90;55.75
22649;BME280;11491;41.942;24.220;2024-01-15T10:22:24;88904.44;;;6.19;53.54
22649;BME280;11491;41.942;24.220;2024-01-15T10:24:52;88898.94;;;6.28;54.79
22649;BME280;11491;41.942;24.220;2024-01-15T10:27:19;88889.66;;;6.66;51.70
22649;BME280;11491;41.942;24.220;2024-01-15T10:29:45;88884.47;;;6.89;51.81
22649;BME280;11491;41.942;24.220;2024-01-15T10:32:12;88886.56;;;7.50;48.65
22649;BME280;11491;41.942;24.220;2024-01-15T10:34:39;88886.94;;;8.30;48.13
22649;BME280;11491;41.942;24.220;2024-01-15T10:37:07;88880.69;;;7.80;48.19
22649;BME280;11491;41.942;24.220;2024-01-15T10:39:36;88880.13;;;6.81;50.88
22649;BME280;11491;41.942;24.220;2024-01-15T10:42:03;88867.63;;;6.50;53.51
22649;BME280;11491;41.942;24.220;2024-01-15T10:44:30;88874.44;;;5.75;55.25
22649;BME280;11491;41.942;24.220;2024-01-15T10:46:57;88871.75;;;5.59;56.81
22649;BME280;11491;41.942;24.220;2024-01-15T10:49:24;88882.94;;;5.52;58.03
22649;BME280;11491;41.942;24.220;2024-01-15T10:51:53;88872.81;;;5.70;58.64
22649;BME280;11491;41.942;24.220;2024-01-15T10:54:21;88873.47;;;5.67;57.24
22649;BME280;11491;41.942;24.220;2024-01-15T10:56:50;88870.88;;;6.11;57.24
22649;BME280;11491;41.942;24.220;2024-01-15T10:59:20;88862.88;;;7.26;52.55
22649;BME280;11491;41.942;24.220;2024-01-15T11:01:48;88860.34;;;7.52;50.61
22649;BME280;11491;41.942;24.220;2024-01-15T11:04:16;88854.47;;;7.82;50.94
22649;BME280;11491;41.942;24.220;2024-01-15T11:06:44;88859.66;;;7.94;50.60
22649;BME280;11491;41.942;24.220;2024-01-15T11:09:12;88861.19;;;7.37;50.73
22649;BME280;11491;41.942;24.220;2024-01-15T11:11:41;88861.75;;;6.76;52.60
22649;BME280;11491;41.942;24.220;2024-01-15T11:14:10;88854.66;;;6.96;52.72
22649;BME280;11491;41.942;24.220;2024-01-15T11:16:53;88846.69;;;7.15;52.40
22649;BME280;11491;41.942;24.220;2024-01-15T11:19:20;88843.75;;;7.20;52.89
22649;BME280;11491;41.942;24.220;2024-01-15T11:21:46;88855.75;;;7.88;49.72
22649;BME280;11491;41.942;24.220;2024-01-15T11:24:34;88850.63;;;8.41;47.97
22649;BME280;11491;41.942;24.220;2024-01-15T11:27:01;88827.06;;;7.59;49.99
22649;BME280;11491;41.942;24.220;2024-01-15T11:29:31;88829.81;;;7.07;50.99
22649;BME280;11491;41.942;24.220;2024-01-15T11:32:00;88822.50;;;6.85;51.72
22649;BME280;11491;41.942;24.220;2024-01-15T11:34:51;88832.31;;;6.81;51.88
22649;BME280;11491;41.942;24.220;2024-01-15T11:37:19;88824.94;;;6.58;52.51
22649;BME280;11491;41.942;24.220;2024-01-15T11:39:48;88823.16;;;6.62;53.21
22649;BME280;11491;41.942;24.220;2024-01-15T11:42:14;88831.50;;;6.80;54.10
22649;BME280;11491;41.942;24.220;2024-01-15T11:44:43;88835.47;;;6.71;52.68
22649;BME280;11491;41.942;24.220;2024-01-15T11:47:11;88828.34;;;6.75;53.05
22649;BME280;11491;41.942;24.220;2024-01-15T11:49:59;88829.06;;;7.07;52.21
22649;BME280;11491;41.942;24.220;2024-01-15T11:52:33;88821.88;;;7.27;51.84
22649;BME280;11491;41.942;24.220;2024-01-15T11:55:19;88825.63;;;7.06;51.53
22649;BME280;11491;41.942;24.220;2024-01-15T11:57:49;88826.13;;;6.77;52.07
22649;BME280;11491;41.942;24.220;2024-01-15T12:00:18;88816.97;;;6.58;52.56
22649;BME280;11491;41.942;24.220;2024-01-15T12:02:46;88814.44;;;6.46;52.90
22649;BME280;11491;41.942;24.220;2024-01-15T12:05:14;88826.25;;;6.33;52.86
22649;BME280;11491;41.942;24.220;2024-01-15T12:07:42;88816.25;;;6.10;53.95
22649;BME280;11491;41.942;24.220;2024-01-15T12:10:10;88803.75;;;5.95;55.04
22649;BME280;11491;41.942;24.220;2024-01-15T12:12:46;88820.53;;;5.99;55.69
22649;BME280;11491;41.942;24.220;2024-01-15T12:15:15;88825.84;;;5.99;55.16
22649;BME280;11491;41.942;24.220;2024-01-15T12:17:44;88826.69;;;6.03;55.58
22649;BME280;11491;41.942;24.220;2024-01-15T12:20:14;88830.75;;;5.85;55.36
22649;BME280;11491;41.942;24.220;2024-01-15T12:22:42;88811.38;;;5.68;56.54
22649;BME280;11491;41.942;24.220;2024-01-15T12:25:09;88824.19;;;5.66;56.09
22649;BME280;11491;41.942;24.220;2024-01-15T12:27:36;88824.78;;;5.59;56.92
22649;BME280;11491;41.942;24.220;2024-01-15T12:30:04;88827.28;;;5.68;57.15
22649;BME280;11491;41.942;24.220;2024-01-15T12:32:31;88825.63;;;5.64;56.75
22649;BME280;11491;41.942;24.220;2024-01-15T12:35:00;88803.94;;;5.74;58.02
22649;BME280;11491;41.942;24.220;2024-01-15T12:37:27;88802.66;;;5.83;57.53
22649;BME280;11491;41.942;24.220;2024-01-15T12:39:53;88791.59;;;5.94;56.84
22649;BME280;11491;41.942;24.220;2024-01-15T12:42:21;88788.47;;;5.92;56.77
22649;BME280;11491;41.942;24.220;2024-01-15T12:44:48;88793.19;;;5.98;56.71
22649;BME280;11491;41.942;24.220;2024-01-15T12:47:15;88786.53;;;6.04;57.35
22649;BME280;11491;41.942;24.220;2024-01-15T12:49:46;88782.69;;;6.02;56.50
22649;BME280;11491;41.942;24.220;2024-01-15T12:52:14;88786.09;;;6.02;56.85
22649;BME280;11491;41.942;24.220;2024-01-15T12:54:41;88791.09;;;6.04;57.23
22649;BME280;11491;41.942;24.220;2024-01-15T12:57:08;88793.91;;;6.11;56.63